createdAt,value
2022-10-17T00:00:13.733Z,5.70
2022-10-17T00:02:40.845Z,5.65
2022-10-17T00:05:08.087Z,5.57
2022-10-17T00:07:35.244Z,5.88
2022-10-17T00:10:02.370Z,5.88
2022-10-17T00:12:29.554Z,5.40
2022-10-17T00:14:56.724Z,5.55
2022-10-17T00:17:26.275Z,5.60
2022-10-17T00:19:53.659Z,5.68
2022-10-17T00:22:20.968Z,5.80
2022-10-17T00:24:48.102Z,5.82
2022-10-17T00:27:15.224Z,5.70
2022-10-17T00:29:42.334Z,5.97
2022-10-17T00:32:09.501Z,5.78
2022-10-17T00:34:36.610Z,5.85
2022-10-17T00:37:03.755Z,6.18
2022-10-17T00:39:30.950Z,6.05
2022-10-17T00:41:58.058Z,6.57
2022-10-17T00:44:32.016Z,7.03
2022-10-17T00:47:00.664Z,6.40
2022-10-17T00:49:31.526Z,5.88
2022-10-17T00:52:00.762Z,6.10
2022-10-17T00:54:31.044Z,6.83
2022-10-17T00:56:59.049Z,6.25
2022-10-17T00:59:26.914Z,6.25
2022-10-17T01:02:09.426Z,6.45
2022-10-17T01:04:38.059Z,5.97
2022-10-17T01:07:05.773Z,6.77
2022-10-17T01:09:33.410Z,6.43
2022-10-17T01:12:06.667Z,6.40
2022-10-17T01:14:43.122Z,6.47
2022-10-17T01:17:22.574Z,7.00
2022-10-17T01:19:49.777Z,6.87
2022-10-17T01:22:41.797Z,6.43
2022-10-17T01:25:28.715Z,6.80
2022-10-17T01:28:16.884Z,6.63
2022-10-17T01:30:59.756Z,7.18
2022-10-17T01:33:46.892Z,6.87
2022-10-17T01:36:14.025Z,7.00
2022-10-17T01:38:52.671Z,7.38
2022-10-17T01:41:31.812Z,6.97
2022-10-17T01:44:11.472Z,6.88
2022-10-17T01:46:39.811Z,6.63
2022-10-17T01:49:08.628Z,7.28
2022-10-17T01:51:41.789Z,6.97
2022-10-17T01:54:13.251Z,7.38
2022-10-17T01:56:42.063Z,7.65
2022-10-17T01:59:14.977Z,6.83
2022-10-17T02:01:43.950Z,7.15
2022-10-17T02:04:12.463Z,7.38
2022-10-17T02:06:40.793Z,7.20
2022-10-17T02:09:17.538Z,7.22
2022-10-17T02:11:46.975Z,7.83
2022-10-17T02:14:33.630Z,7.18
2022-10-17T02:17:00.711Z,7.63
2022-10-17T02:19:40.160Z,7.50
2022-10-17T02:22:17.507Z,7.97
2022-10-17T02:24:53.064Z,7.10
2022-10-17T02:27:29.914Z,7.93
2022-10-17T02:30:12.755Z,7.80
2022-10-17T02:32:40.600Z,8.02
2022-10-17T02:35:13.028Z,7.93
2022-10-17T02:37:41.663Z,8.00
2022-10-17T02:40:09.561Z,7.55
2022-10-17T02:42:37.137Z,8.20
2022-10-17T02:45:05.807Z,8.80
2022-10-17T02:47:33.225Z,8.30
2022-10-17T02:50:00.385Z,7.40
2022-10-17T02:52:39.902Z,7.63
2022-10-17T02:55:17.283Z,7.97
2022-10-17T02:57:47.451Z,8.38
2022-10-17T03:03:41.947Z,8.20
2022-10-17T03:06:09.089Z,8.35
2022-10-17T03:11:03.457Z,8.18
2022-10-17T03:13:30.692Z,7.93
2022-10-17T03:15:58.014Z,8.70
2022-10-17T03:18:25.372Z,8.43
2022-10-17T03:20:52.501Z,8.52
2022-10-17T03:23:19.751Z,7.95
2022-10-17T03:25:46.879Z,8.00
2022-10-17T03:28:14.217Z,8.07
2022-10-17T03:30:41.681Z,8.23
2022-10-17T03:33:09.180Z,8.85
2022-10-17T03:35:39.299Z,8.60
2022-10-17T03:38:06.478Z,8.43
2022-10-17T03:40:33.581Z,8.57
2022-10-17T03:43:00.674Z,8.70
2022-10-17T03:45:27.880Z,7.97
2022-10-17T03:47:55.018Z,8.10
2022-10-17T03:50:22.176Z,8.00
2022-10-17T03:52:49.882Z,8.83
2022-10-17T03:55:17.265Z,7.75
2022-10-17T03:57:47.354Z,8.07
2022-10-17T04:00:14.736Z,8.02
2022-10-17T04:02:41.956Z,8.25
2022-10-17T04:05:09.262Z,8.40
2022-10-17T04:07:37.617Z,8.18
2022-10-17T04:10:05.363Z,8.10
2022-10-17T04:12:32.602Z,7.65
2022-10-17T04:14:59.835Z,7.85
2022-10-17T04:17:26.976Z,8.20
2022-10-17T04:19:54.069Z,7.95
2022-10-17T04:22:21.186Z,7.70
2022-10-17T04:24:48.309Z,8.05
2022-10-17T04:27:15.541Z,8.27
2022-10-17T04:29:43.965Z,8.03
2022-10-17T04:32:11.204Z,8.05
2022-10-17T04:34:38.319Z,7.78
2022-10-17T04:37:05.434Z,8.32
2022-10-17T04:39:32.683Z,8.52
2022-10-17T04:41:59.789Z,7.80
2022-10-17T04:44:30.829Z,7.50
2022-10-17T04:46:57.958Z,7.78
2022-10-17T04:49:25.087Z,7.50
2022-10-17T04:51:52.232Z,8.38
2022-10-17T04:54:19.486Z,7.17
2022-10-17T04:56:47.231Z,7.60
2022-10-17T04:59:14.505Z,7.82
2022-10-17T05:01:41.658Z,8.25
2022-10-17T05:04:08.819Z,7.85
2022-10-17T05:06:37.697Z,7.40
2022-10-17T05:09:05.017Z,7.43
2022-10-17T05:11:32.209Z,7.80
2022-10-17T05:14:01.318Z,7.50
2022-10-17T05:16:29.262Z,7.88
2022-10-17T05:18:58.070Z,7.87
2022-10-17T05:21:26.570Z,7.68
2022-10-17T05:23:59.764Z,7.57
2022-10-17T05:26:27.037Z,7.47
2022-10-17T05:28:54.660Z,7.95
2022-10-17T05:31:21.899Z,7.60
2022-10-17T05:33:49.268Z,7.53
2022-10-17T05:36:16.548Z,8.68
2022-10-17T05:38:43.827Z,7.72
2022-10-17T05:41:11.244Z,7.50
2022-10-17T05:43:38.532Z,8.50
2022-10-17T05:46:06.639Z,7.53
2022-10-17T05:48:34.033Z,8.00
2022-10-17T05:51:02.430Z,8.27
2022-10-17T05:53:39.603Z,7.32
2022-10-17T05:56:08.011Z,7.53
2022-10-17T05:58:49.222Z,7.45
2022-10-17T06:01:17.631Z,7.75
2022-10-17T06:03:45.198Z,7.80
2022-10-17T06:06:16.868Z,8.13
2022-10-17T06:08:47.537Z,7.60
2022-10-17T06:11:20.181Z,7.68
2022-10-17T06:13:47.352Z,7.47
2022-10-17T06:16:14.719Z,7.88
2022-10-17T06:18:41.862Z,7.68
2022-10-17T06:21:11.723Z,7.60
2022-10-17T06:23:41.435Z,7.75
2022-10-17T06:26:16.972Z,7.97
2022-10-17T06:28:44.460Z,7.63
2022-10-17T06:31:13.341Z,7.95
2022-10-17T06:33:40.491Z,8.03
2022-10-17T06:36:11.083Z,7.72
2022-10-17T06:38:38.688Z,7.72
2022-10-17T06:41:13.264Z,8.63
2022-10-17T06:43:41.200Z,7.68
2022-10-17T06:46:08.312Z,7.40
2022-10-17T06:48:35.478Z,7.30
2022-10-17T06:51:03.041Z,7.22
2022-10-17T06:53:30.895Z,7.10
2022-10-17T07:44:31.803Z,7.80
2022-10-17T07:46:58.953Z,7.20
2022-10-17T07:49:26.027Z,8.05
2022-10-17T07:51:53.229Z,7.60
2022-10-17T07:54:20.325Z,7.70
2022-10-17T07:56:50.486Z,8.50
2022-10-17T07:59:39.353Z,8.10
2022-10-17T08:02:08.109Z,7.97
2022-10-17T08:12:48.842Z,7.40
2022-10-17T08:15:40.720Z,7.57
2022-10-17T19:19:24.101Z,14.80
2022-10-17T19:25:35.316Z,12.77
2022-10-17T19:28:03.168Z,13.67
2022-10-17T19:30:31.239Z,15.80
2022-10-17T19:32:59.824Z,15.40
2022-10-17T19:35:27.770Z,14.38
2022-10-17T19:37:55.737Z,14.85
2022-10-17T19:40:23.553Z,13.67
2022-10-17T19:42:52.303Z,13.13
2022-10-17T19:45:19.453Z,13.73
2022-10-17T19:47:46.695Z,13.73
2022-10-17T19:50:14.141Z,13.30
2022-10-17T20:11:52.289Z,15.02
2022-10-17T20:14:20.157Z,16.15
2022-10-17T20:16:52.490Z,15.32
2022-10-17T20:19:19.902Z,17.00
2022-10-17T20:21:50.619Z,15.00
2022-10-17T20:24:18.786Z,15.18
2022-10-17T20:26:50.443Z,15.77
2022-10-17T20:29:24.261Z,14.68
2022-10-17T20:31:51.870Z,15.33
2022-10-17T20:34:19.676Z,15.50
2022-10-17T20:36:49.282Z,15.38
2022-10-17T20:39:23.487Z,14.88
2022-10-17T20:41:50.780Z,15.18
2022-10-17T20:44:18.097Z,14.53
2022-10-17T20:47:00.600Z,16.02
2022-10-17T20:52:20.496Z,15.43
2022-10-17T20:54:47.796Z,15.75
2022-10-17T21:10:58.749Z,15.77
2022-10-17T21:13:25.852Z,14.52
2022-10-17T21:15:53.152Z,14.70
2022-10-17T21:18:20.546Z,13.77
2022-10-17T21:20:47.684Z,14.32
2022-10-17T21:23:14.827Z,15.47
2022-10-17T21:25:42.269Z,14.77
2022-10-17T21:28:11.581Z,14.63
2022-10-17T21:30:38.796Z,13.48
2022-10-17T21:33:05.944Z,13.48
2022-10-17T21:35:33.101Z,13.53
2022-10-17T21:38:25.094Z,12.95
2022-10-17T21:40:55.258Z,14.27
2022-10-17T21:43:24.968Z,14.38
2022-10-17T21:45:53.102Z,14.15
2022-10-17T21:48:27.425Z,13.47
2022-10-17T21:51:02.964Z,13.45
2022-10-17T21:53:35.318Z,12.68
2022-10-17T21:56:06.990Z,13.45
2022-10-17T21:58:36.342Z,12.80
2022-10-17T22:01:33.094Z,13.03
2022-10-17T22:04:01.980Z,12.23
2022-10-17T22:06:53.407Z,11.93
2022-10-17T22:09:43.772Z,12.13
2022-10-17T22:12:11.175Z,13.02
2022-10-17T22:14:38.484Z,12.77
2022-10-17T22:17:05.794Z,11.68
2022-10-17T22:19:33.276Z,12.10
2022-10-17T22:22:00.497Z,13.30
2022-10-17T22:24:30.803Z,12.68
2022-10-17T22:26:57.933Z,13.37
2022-10-17T22:29:25.038Z,11.52
2022-10-17T22:32:21.553Z,11.23
2022-10-17T22:35:06.072Z,12.35
2022-10-17T22:38:02.274Z,12.95
2022-10-17T22:40:29.356Z,11.53
2022-10-17T22:42:56.525Z,12.55
2022-10-17T22:45:23.964Z,11.98
2022-10-17T22:47:51.098Z,12.00
2022-10-17T22:50:18.667Z,11.32
2022-10-17T22:52:45.831Z,11.70
2022-10-17T22:55:13.083Z,11.13
2022-10-17T22:57:53.991Z,11.68
2022-10-17T23:00:23.578Z,11.52
2022-10-17T23:02:57.316Z,11.10
2022-10-17T23:05:30.171Z,12.10
2022-10-17T23:07:57.626Z,11.63
2022-10-17T23:10:24.876Z,12.15
2022-10-17T23:12:52.029Z,11.20
2022-10-17T23:15:19.257Z,10.50
2022-10-17T23:17:46.612Z,10.50
2022-10-17T23:20:13.778Z,10.90
2022-10-17T23:22:42.106Z,10.60
2022-10-17T23:25:09.454Z,11.57
2022-10-17T23:27:36.583Z,10.07
2022-10-17T23:30:04.976Z,10.87
2022-10-17T23:32:32.493Z,12.40
2022-10-17T23:38:29.666Z,12.50
2022-10-17T23:40:57.018Z,12.07
2022-10-17T23:43:27.238Z,11.67
2022-10-17T23:46:00.667Z,11.20
2022-10-17T23:48:28.238Z,10.57
2022-10-17T23:50:56.028Z,10.50
2022-10-17T23:53:23.870Z,11.07
2022-10-17T23:55:51.166Z,11.57
